createdAt,value
2023-03-25T00:02:29.436Z,3.88
2023-03-25T00:05:03.057Z,4.38
2023-03-25T00:07:36.151Z,16.80
2023-03-25T00:10:10.079Z,5.15
2023-03-25T00:12:42.596Z,8.75
2023-03-25T00:15:16.076Z,6.95
2023-03-25T00:17:48.376Z,3.60
2023-03-25T00:20:20.766Z,3.05
2023-03-25T00:22:53.056Z,3.25
2023-03-25T00:25:25.405Z,3.33
2023-03-25T00:27:57.690Z,3.33
2023-03-25T00:30:31.129Z,4.05
2023-03-25T00:33:03.734Z,3.97
2023-03-25T00:35:36.842Z,4.43
2023-03-25T00:38:09.158Z,3.72
2023-03-25T00:40:41.521Z,4.20
2023-03-25T00:43:14.182Z,3.40
2023-03-25T00:45:47.204Z,4.45
2023-03-25T00:48:19.799Z,3.95
2023-03-25T00:50:52.227Z,4.13
2023-03-25T00:53:24.641Z,5.70
2023-03-25T00:55:57.831Z,3.95
2023-03-25T00:58:30.296Z,6.22
2023-03-25T01:01:12.341Z,5.60
2023-03-25T01:03:45.038Z,5.35
2023-03-25T01:06:20.896Z,7.40
2023-03-25T01:08:53.205Z,5.28
2023-03-25T01:11:27.504Z,5.22
2023-03-25T01:14:00.086Z,4.32
2023-03-25T01:16:33.671Z,3.40
2023-03-25T01:19:06.161Z,4.07
2023-03-25T01:21:38.903Z,4.63
2023-03-25T01:24:13.572Z,7.55
2023-03-25T01:26:46.059Z,7.03
2023-03-25T01:29:20.818Z,6.28
2023-03-25T01:31:53.961Z,4.68
2023-03-25T01:34:26.500Z,6.07
2023-03-25T01:37:00.348Z,4.47
2023-03-25T01:39:32.762Z,4.63
2023-03-25T01:42:05.239Z,3.90
2023-03-25T01:45:29.960Z,4.45
2023-03-25T01:48:09.531Z,3.20
2023-03-25T01:50:47.461Z,4.13
2023-03-25T01:53:20.152Z,14.02
2023-03-25T01:55:53.933Z,8.55
2023-03-25T01:58:28.544Z,9.20
2023-03-25T02:01:02.633Z,7.72
2023-03-25T02:03:36.503Z,9.38
2023-03-25T02:06:14.840Z,10.75
2023-03-25T02:08:48.489Z,5.50
2023-03-25T02:11:21.068Z,5.95
2023-03-25T02:13:53.527Z,6.75
2023-03-25T02:16:32.801Z,6.28
2023-03-25T02:19:34.971Z,11.93
2023-03-25T02:22:37.270Z,10.77
2023-03-25T02:25:35.663Z,26.38
2023-03-25T02:28:24.877Z,19.88
2023-03-25T02:31:28.864Z,14.43
2023-03-25T02:34:33.044Z,18.83
2023-03-25T02:37:27.117Z,18.30
2023-03-25T02:40:06.359Z,26.85
2023-03-25T02:42:44.529Z,37.90
2023-03-25T02:45:23.426Z,33.75
2023-03-25T02:48:01.431Z,7.75
2023-03-25T02:50:39.938Z,28.67
2023-03-25T02:53:16.765Z,30.50
2023-03-25T02:55:51.997Z,25.58
2023-03-25T02:58:27.448Z,34.40
2023-03-25T03:01:00.031Z,27.98
2023-03-25T03:03:33.012Z,18.55
2023-03-25T03:06:07.913Z,7.32
2023-03-25T03:09:03.116Z,14.73
2023-03-25T03:11:47.082Z,9.13
2023-03-25T03:14:31.726Z,6.05
2023-03-25T03:17:12.098Z,26.63
2023-03-25T03:19:49.084Z,11.15
2023-03-25T03:22:34.931Z,14.02
2023-03-25T03:25:19.366Z,20.20
2023-03-25T03:27:57.818Z,10.93
2023-03-25T03:30:35.186Z,8.18
2023-03-25T03:33:14.737Z,8.07
2023-03-25T03:35:56.676Z,8.45
2023-03-25T03:38:34.624Z,9.60
2023-03-25T03:41:10.643Z,4.28
2023-03-25T03:43:48.059Z,3.72
2023-03-25T03:46:24.461Z,3.90
2023-03-25T03:48:59.461Z,4.10
2023-03-25T03:51:37.119Z,4.22
2023-03-25T03:54:15.956Z,3.90
2023-03-25T03:56:52.866Z,4.33
2023-03-25T03:59:34.002Z,4.32
2023-03-25T04:02:14.336Z,5.18
2023-03-25T04:04:46.977Z,3.58
2023-03-25T04:07:22.218Z,3.72
2023-03-25T04:10:02.607Z,4.30
2023-03-25T04:12:40.355Z,3.58
2023-03-25T04:15:14.613Z,2.88
2023-03-25T04:17:47.299Z,3.35
2023-03-25T04:20:24.329Z,4.07
2023-03-25T04:22:56.654Z,3.75
2023-03-25T04:25:30.822Z,3.35
2023-03-25T04:28:03.305Z,3.17
2023-03-25T04:30:36.820Z,4.32
2023-03-25T04:33:09.373Z,4.32
2023-03-25T04:35:41.769Z,3.88
2023-03-25T04:38:16.338Z,4.65
2023-03-25T04:40:48.772Z,4.18
2023-03-25T04:43:21.238Z,3.28
2023-03-25T04:45:54.971Z,4.82
2023-03-25T04:48:29.838Z,4.40
2023-03-25T04:51:03.129Z,4.70
2023-03-25T04:53:35.888Z,4.90
2023-03-25T04:56:15.443Z,4.32
2023-03-25T04:58:47.787Z,6.85
2023-03-25T05:01:23.964Z,5.10
2023-03-25T05:04:04.108Z,5.15
2023-03-25T05:06:39.186Z,5.38
2023-03-25T05:09:15.027Z,4.75
2023-03-25T05:11:48.030Z,5.30
2023-03-25T05:14:21.585Z,5.22
2023-03-25T05:16:56.686Z,5.60
2023-03-25T05:19:28.987Z,4.47
2023-03-25T05:22:02.491Z,3.83
2023-03-25T05:24:36.440Z,4.40
2023-03-25T05:27:09.400Z,6.18
2023-03-25T05:29:43.858Z,4.43
2023-03-25T05:32:17.198Z,3.97
2023-03-25T05:34:49.522Z,5.63
2023-03-25T05:37:22.003Z,5.88
2023-03-25T05:39:54.574Z,14.48
2023-03-25T05:42:27.114Z,8.65
2023-03-25T05:44:59.373Z,9.73
2023-03-25T05:47:32.625Z,14.90
2023-03-25T05:50:05.888Z,15.55
2023-03-25T05:52:40.925Z,13.75
2023-03-25T05:55:16.229Z,12.20
2023-03-25T05:57:48.848Z,7.72
2023-03-25T06:00:21.164Z,4.78
2023-03-25T06:02:58.296Z,4.55
2023-03-25T06:05:30.963Z,5.22
2023-03-25T06:08:03.590Z,4.50
2023-03-25T06:10:36.114Z,4.03
2023-03-25T06:13:09.819Z,4.22
2023-03-25T06:15:42.174Z,4.20
2023-03-25T06:18:15.312Z,3.83
2023-03-25T06:20:48.260Z,4.95
2023-03-25T06:23:21.966Z,4.47
2023-03-25T06:25:57.938Z,4.70
2023-03-25T06:28:30.301Z,5.05
2023-03-25T06:31:06.366Z,4.88
2023-03-25T06:33:43.002Z,4.50
2023-03-25T06:36:19.545Z,4.68
2023-03-25T06:38:51.914Z,4.80
2023-03-25T06:41:26.013Z,4.72
2023-03-25T06:44:17.202Z,4.90
2023-03-25T06:47:18.151Z,4.22
2023-03-25T06:49:55.296Z,4.20
2023-03-25T06:52:27.676Z,5.65
2023-03-25T06:55:00.113Z,4.55
2023-03-25T06:57:32.840Z,5.13
2023-03-25T07:00:06.519Z,5.15
2023-03-25T07:02:38.998Z,4.55
2023-03-25T07:05:12.154Z,4.85
2023-03-25T07:07:44.961Z,5.25
2023-03-25T07:10:17.537Z,4.50
2023-03-25T07:12:49.910Z,5.68
2023-03-25T07:15:22.325Z,5.53
2023-03-25T07:17:55.049Z,5.82
2023-03-25T07:20:28.100Z,5.63
2023-03-25T07:23:00.457Z,6.22
2023-03-25T07:25:33.003Z,5.22
2023-03-25T07:28:05.518Z,4.78
2023-03-25T07:30:40.740Z,5.03
2023-03-25T07:33:13.084Z,6.03
2023-03-25T07:35:46.247Z,6.90
2023-03-25T07:38:18.728Z,4.57
2023-03-25T07:40:51.119Z,4.97
2023-03-25T07:43:23.505Z,3.58
2023-03-25T07:46:08.299Z,3.28
2023-03-25T07:48:41.269Z,3.17
2023-03-25T07:51:14.278Z,4.00
2023-03-25T07:53:46.710Z,3.35
2023-03-25T07:56:19.222Z,3.40
2023-03-25T07:58:51.622Z,2.53
2023-03-25T08:01:24.198Z,3.17
2023-03-25T08:03:57.425Z,3.40
2023-03-25T08:06:30.550Z,3.47
2023-03-25T08:09:03.871Z,2.83
2023-03-25T08:11:36.590Z,2.30
2023-03-25T08:14:08.964Z,2.92
2023-03-25T08:16:41.325Z,3.28
2023-03-25T08:19:13.822Z,4.10
2023-03-25T08:21:46.912Z,3.38
2023-03-25T08:24:19.341Z,2.63
2023-03-25T08:26:51.760Z,2.28
2023-03-25T08:29:24.527Z,2.67
2023-03-25T08:31:56.990Z,3.03
2023-03-25T08:34:33.830Z,2.15
2023-03-25T08:37:07.254Z,1.52
2023-03-25T08:39:41.464Z,1.92
2023-03-25T08:42:13.924Z,2.35
2023-03-25T08:44:46.203Z,2.40
2023-03-25T08:47:18.659Z,2.13
2023-03-25T08:49:51.023Z,1.70
2023-03-25T08:52:24.268Z,2.15
2023-03-25T08:54:56.624Z,2.72
2023-03-25T08:57:29.091Z,2.33
2023-03-25T09:00:01.651Z,3.05
2023-03-25T09:02:34.222Z,2.15
2023-03-25T09:05:07.256Z,1.75
2023-03-25T09:07:40.202Z,2.80
2023-03-25T09:10:12.584Z,2.33
2023-03-25T09:12:44.925Z,1.73
2023-03-25T09:15:17.223Z,2.00
2023-03-25T09:17:49.662Z,2.47
2023-03-25T09:20:22.546Z,2.38
2023-03-25T09:22:55.511Z,2.55
2023-03-25T09:25:28.150Z,2.10
2023-03-25T09:28:00.415Z,2.35
2023-03-25T09:30:32.807Z,2.63
2023-03-25T09:33:06.200Z,2.17
2023-03-25T09:35:39.766Z,2.40
2023-03-25T09:38:12.775Z,2.13
2023-03-25T09:40:45.902Z,2.38
2023-03-25T09:43:28.630Z,2.65
2023-03-25T09:46:01.991Z,3.08
2023-03-25T09:48:37.895Z,2.97
2023-03-25T09:51:15.172Z,3.58
2023-03-25T09:53:53.572Z,3.17
2023-03-25T09:56:28.381Z,2.95
2023-03-25T09:59:04.722Z,6.93
2023-03-25T10:01:47.254Z,7.40
2023-03-25T10:04:39.264Z,6.93
2023-03-25T10:07:25.474Z,5.47
2023-03-25T10:10:12.113Z,5.15
2023-03-25T10:12:53.054Z,3.90
2023-03-25T10:15:32.453Z,3.92
2023-03-25T10:21:03.413Z,3.47
2023-03-25T10:23:41.349Z,4.55
2023-03-25T10:26:20.049Z,2.45
2023-03-25T10:28:57.973Z,2.60
2023-03-25T10:31:36.177Z,2.67
2023-03-25T10:34:17.307Z,2.20
2023-03-25T10:36:54.373Z,2.70
2023-03-25T10:39:36.616Z,2.85
2023-03-25T10:42:19.369Z,2.40
2023-03-25T10:44:52.939Z,2.25
2023-03-25T10:47:31.207Z,2.70
2023-03-25T10:50:04.335Z,2.42
2023-03-25T10:52:36.722Z,2.70
2023-03-25T10:55:22.038Z,2.47
2023-03-25T10:57:56.300Z,2.72
2023-03-25T11:00:29.804Z,3.13
2023-03-25T11:03:02.926Z,1.95
2023-03-25T11:05:35.597Z,2.20
2023-03-25T11:08:22.192Z,2.00
2023-03-25T11:10:57.330Z,2.72
2023-03-25T11:13:31.218Z,1.85
2023-03-25T11:16:04.481Z,2.22
2023-03-25T11:18:40.615Z,2.42
2023-03-25T11:21:14.239Z,1.92
2023-03-25T11:23:48.292Z,1.90
2023-03-25T11:26:23.752Z,1.90
2023-03-25T11:29:05.319Z,3.08
2023-03-25T11:31:38.864Z,2.45
2023-03-25T11:34:18.972Z,2.03
2023-03-25T11:36:55.061Z,2.60
2023-03-25T11:39:32.909Z,2.60
2023-03-25T11:42:15.437Z,2.38
2023-03-25T11:44:52.026Z,2.13
2023-03-25T11:47:29.772Z,2.10
2023-03-25T11:50:03.376Z,1.83
2023-03-25T11:52:41.179Z,4.65
2023-03-25T11:55:17.695Z,16.13
2023-03-25T11:57:51.475Z,15.45
2023-03-25T12:00:33.356Z,3.58
2023-03-25T12:03:19.570Z,2.10
2023-03-25T12:06:03.869Z,2.10
2023-03-25T12:08:43.499Z,13.15
2023-03-25T12:14:30.764Z,2.63
2023-03-25T12:17:10.254Z,1.98
2023-03-25T12:22:30.413Z,5.22
2023-03-25T12:25:21.932Z,2.00
2023-03-25T12:28:10.810Z,2.30
2023-03-25T12:30:53.255Z,2.47
2023-03-25T12:33:39.874Z,2.38
2023-03-25T12:36:26.845Z,3.20
2023-03-25T12:39:16.607Z,2.28
2023-03-25T12:42:00.218Z,2.03
2023-03-25T12:44:47.171Z,1.85
2023-03-25T12:47:24.612Z,2.10
2023-03-25T12:50:16.069Z,2.17
2023-03-25T12:52:56.182Z,2.03
2023-03-25T12:55:43.314Z,2.13
2023-03-25T12:58:33.295Z,2.90
2023-03-25T13:01:13.841Z,2.17
2023-03-25T13:04:08.036Z,3.03
2023-03-25T13:06:46.840Z,2.50
2023-03-25T13:09:24.172Z,2.10
2023-03-25T13:12:02.891Z,2.67
2023-03-25T13:14:39.296Z,2.30
2023-03-25T13:17:23.399Z,2.30
2023-03-25T13:20:01.357Z,1.92
2023-03-25T13:22:38.680Z,2.67
2023-03-25T13:25:20.711Z,2.53
2023-03-25T13:27:57.998Z,2.33
2023-03-25T13:30:36.290Z,2.20
2023-03-25T13:33:15.431Z,3.30
2023-03-25T13:35:52.773Z,14.10
2023-03-25T13:38:30.090Z,6.85
2023-03-25T13:41:10.307Z,7.57
2023-03-25T13:43:50.888Z,2.90
2023-03-25T13:46:30.433Z,1.58
2023-03-25T13:49:06.633Z,2.30
2023-03-25T13:51:39.017Z,2.78
2023-03-25T13:54:16.489Z,2.53
2023-03-25T13:57:32.678Z,2.38
2023-03-25T14:00:30.321Z,6.55
2023-03-25T14:03:24.022Z,3.80
2023-03-25T14:06:17.702Z,9.25
2023-03-25T14:09:31.151Z,4.32
2023-03-25T14:12:10.422Z,5.50
2023-03-25T14:14:47.661Z,3.38
2023-03-25T14:17:22.273Z,3.70
2023-03-25T14:19:58.412Z,3.38
2023-03-25T14:22:34.835Z,3.22
2023-03-25T14:25:20.381Z,3.22
2023-03-25T14:27:53.630Z,3.38
2023-03-25T14:30:28.469Z,45.40
2023-03-25T14:33:03.252Z,5.75
2023-03-25T14:35:49.891Z,5.35
2023-03-25T14:38:56.398Z,5.68
2023-03-25T14:42:05.645Z,3.47
2023-03-25T14:44:40.861Z,2.80
2023-03-25T14:47:31.337Z,3.65
2023-03-25T14:50:31.190Z,4.45
2023-03-25T14:53:07.586Z,6.45
2023-03-25T14:55:43.796Z,4.80
2023-03-25T14:58:19.657Z,4.35
2023-03-25T15:00:55.423Z,4.57
2023-03-25T15:03:34.196Z,5.95
2023-03-25T15:06:10.873Z,6.70
2023-03-25T15:08:52.800Z,7.35
2023-03-25T15:11:30.965Z,7.63
2023-03-25T15:14:08.029Z,5.72
2023-03-25T15:16:57.808Z,5.70
2023-03-25T15:19:50.155Z,5.18
2023-03-25T15:22:23.325Z,4.65
2023-03-25T15:24:58.903Z,4.45
2023-03-25T15:27:50.307Z,4.20
2023-03-25T15:30:51.654Z,5.50
2023-03-25T15:33:50.330Z,4.35
2023-03-25T15:36:45.325Z,4.88
2023-03-25T15:39:34.994Z,4.20
2023-03-25T15:45:18.875Z,5.93
2023-03-25T15:48:13.250Z,23.20
2023-03-25T15:51:04.808Z,10.90
2023-03-25T15:53:54.405Z,11.25
2023-03-25T15:59:07.645Z,11.27
2023-03-25T16:01:43.720Z,13.90
2023-03-25T16:04:20.744Z,7.28
2023-03-25T16:06:56.058Z,8.25
2023-03-25T16:09:29.307Z,7.15
2023-03-25T16:12:02.873Z,7.50
2023-03-25T16:14:36.625Z,8.25
2023-03-25T16:17:13.328Z,7.75
2023-03-25T16:19:49.753Z,9.80
2023-03-25T16:22:26.626Z,8.88
2023-03-25T16:25:02.056Z,6.22
2023-03-25T16:27:37.073Z,8.38
2023-03-25T16:30:21.828Z,8.52
2023-03-25T16:33:04.973Z,8.20
2023-03-25T16:35:39.547Z,12.18
2023-03-25T16:38:16.556Z,9.60
2023-03-25T16:40:50.526Z,9.05
2023-03-25T16:43:26.509Z,18.05
2023-03-25T16:46:01.174Z,23.35
2023-03-25T16:48:35.615Z,22.75
2023-03-25T16:51:12.529Z,23.60
2023-03-25T16:53:49.351Z,19.10
2023-03-25T16:56:24.211Z,17.65
2023-03-25T16:59:01.449Z,20.08
2023-03-25T17:01:37.717Z,19.75
2023-03-25T17:04:16.516Z,20.27
2023-03-25T17:06:52.542Z,22.65
2023-03-25T17:09:33.377Z,19.40
2023-03-25T17:12:08.806Z,17.20
2023-03-25T17:14:44.026Z,16.02
2023-03-25T17:17:31.824Z,16.38
2023-03-25T17:20:07.994Z,17.85
2023-03-25T17:22:40.511Z,17.48
2023-03-25T17:25:24.012Z,17.98
2023-03-25T17:28:00.193Z,18.02
2023-03-25T17:30:41.840Z,21.58
2023-03-25T17:33:18.725Z,27.98
2023-03-25T17:35:54.278Z,28.65
2023-03-25T17:38:28.846Z,29.83
2023-03-25T17:41:03.815Z,29.92
2023-03-25T17:43:41.205Z,29.80
2023-03-25T17:46:18.645Z,27.77
2023-03-25T17:48:52.727Z,28.88
2023-03-25T17:51:26.389Z,26.42
2023-03-25T17:53:58.651Z,28.15
2023-03-25T17:56:31.021Z,22.50
2023-03-25T17:59:06.686Z,16.88
2023-03-25T18:01:39.671Z,21.35
2023-03-25T18:04:14.828Z,20.25
2023-03-25T18:06:47.618Z,21.13
2023-03-25T18:09:22.744Z,21.17
2023-03-25T18:11:56.181Z,21.88
2023-03-25T18:14:28.511Z,19.95
2023-03-25T18:17:03.289Z,18.85
2023-03-25T18:19:35.592Z,18.23
2023-03-25T18:22:19.345Z,18.40
2023-03-25T18:24:52.934Z,19.52
2023-03-25T18:27:33.556Z,18.90
2023-03-25T18:30:18.839Z,17.60
2023-03-25T18:32:52.050Z,14.25
2023-03-25T18:35:24.568Z,13.70
2023-03-25T18:37:56.964Z,16.10
2023-03-25T18:40:34.549Z,17.83
2023-03-25T18:43:06.826Z,15.45
2023-03-25T18:45:39.318Z,18.20
2023-03-25T18:48:12.920Z,19.38
2023-03-25T18:50:51.704Z,20.15
2023-03-25T18:53:25.637Z,18.77
2023-03-25T18:56:00.276Z,26.65
2023-03-25T18:58:34.327Z,18.92
2023-03-25T19:01:07.839Z,22.77
2023-03-25T19:03:41.447Z,19.27
2023-03-25T19:06:14.328Z,20.02
2023-03-25T19:08:47.169Z,17.70
2023-03-25T19:11:22.270Z,20.30
2023-03-25T19:13:54.984Z,21.05
2023-03-25T19:16:27.451Z,21.10
2023-03-25T19:19:00.936Z,31.90
2023-03-25T19:21:34.280Z,30.63
2023-03-25T19:24:06.957Z,20.20
2023-03-25T19:26:39.421Z,21.48
2023-03-25T19:29:11.837Z,20.75
2023-03-25T19:31:44.245Z,17.38
2023-03-25T19:34:17.621Z,18.60
2023-03-25T19:36:52.498Z,18.10
2023-03-25T19:39:25.166Z,18.45
2023-03-25T19:41:57.543Z,18.27
2023-03-25T19:44:30.084Z,18.40
2023-03-25T19:47:02.645Z,20.67
2023-03-25T19:49:40.165Z,29.30
2023-03-25T19:52:12.810Z,29.30
2023-03-25T19:54:46.149Z,28.73
2023-03-25T19:57:18.585Z,46.08
2023-03-25T19:59:50.920Z,40.72
2023-03-25T20:02:23.733Z,38.15
2023-03-25T20:04:56.863Z,42.28
2023-03-25T20:07:29.225Z,39.80
2023-03-25T20:10:16.715Z,46.13
2023-03-25T20:12:52.438Z,28.85
2023-03-25T20:15:25.763Z,38.65
2023-03-25T20:17:58.600Z,37.30
2023-03-25T20:20:31.894Z,42.63
2023-03-25T20:23:04.410Z,41.88
2023-03-25T20:25:37.736Z,48.25
2023-03-25T20:28:10.249Z,40.15
2023-03-25T20:30:42.610Z,34.33
2023-03-25T20:33:15.007Z,19.30
2023-03-25T20:35:48.317Z,20.27
2023-03-25T20:38:20.847Z,31.13
2023-03-25T20:40:53.994Z,19.60
2023-03-25T20:43:26.383Z,16.67
2023-03-25T20:45:58.731Z,10.20
2023-03-25T20:48:31.606Z,9.82
2023-03-25T20:51:13.612Z,8.77
2023-03-25T20:53:46.388Z,7.95
2023-03-25T20:56:19.023Z,16.17
2023-03-25T20:58:51.374Z,12.88
2023-03-25T21:01:23.815Z,15.38
2023-03-25T21:03:57.868Z,13.55
2023-03-25T21:06:30.995Z,10.45
2023-03-25T21:09:07.356Z,10.75
2023-03-25T21:11:40.369Z,9.43
2023-03-25T21:14:12.978Z,7.78
2023-03-25T21:16:45.916Z,8.73
2023-03-25T21:19:18.278Z,6.90
2023-03-25T21:21:51.268Z,13.15
2023-03-25T21:24:23.623Z,14.90
2023-03-25T21:26:55.973Z,10.48
2023-03-25T21:29:28.881Z,11.77
2023-03-25T21:32:01.546Z,7.18
2023-03-25T21:34:34.017Z,9.75
2023-03-25T21:37:07.022Z,11.10
2023-03-25T21:39:39.417Z,11.32
2023-03-25T21:42:11.750Z,10.45
2023-03-25T21:44:44.152Z,9.40
2023-03-25T21:47:17.116Z,8.23
2023-03-25T21:49:49.751Z,9.10
2023-03-25T21:52:25.700Z,9.32
2023-03-25T21:54:58.604Z,8.68
2023-03-25T21:57:31.182Z,8.30
2023-03-25T22:00:07.167Z,8.70
2023-03-25T22:02:45.803Z,15.18
2023-03-25T22:05:18.151Z,13.98
2023-03-25T22:07:51.116Z,12.05
2023-03-25T22:10:23.408Z,9.23
2023-03-25T22:12:55.751Z,9.85
2023-03-25T22:15:28.077Z,9.13
2023-03-25T22:18:00.474Z,8.15
2023-03-25T22:20:33.026Z,10.57
2023-03-25T22:23:06.092Z,8.25
2023-03-25T22:25:38.624Z,7.28
2023-03-25T22:28:11.085Z,8.70
2023-03-25T22:30:43.444Z,7.88
2023-03-25T22:33:16.272Z,7.90
2023-03-25T22:35:50.772Z,10.30
2023-03-25T22:38:23.774Z,8.40
2023-03-25T22:40:56.100Z,8.27
2023-03-25T22:43:28.429Z,9.48
2023-03-25T22:46:02.770Z,7.45
2023-03-25T22:48:38.346Z,8.35
2023-03-25T22:51:13.337Z,9.15
2023-03-25T22:53:47.178Z,7.75
2023-03-25T22:56:22.685Z,8.65
2023-03-25T22:58:55.023Z,7.38
2023-03-25T23:01:35.200Z,16.65
2023-03-25T23:04:08.151Z,11.23
2023-03-25T23:06:41.003Z,9.52
2023-03-25T23:09:33.983Z,3.67
2023-03-25T23:12:06.874Z,1.98
2023-03-25T23:14:41.247Z,4.55
2023-03-25T23:17:13.666Z,1.58
2023-03-25T23:19:46.480Z,2.20
2023-03-25T23:22:19.024Z,3.55
2023-03-25T23:24:52.021Z,2.45
2023-03-25T23:27:26.230Z,1.48
2023-03-25T23:29:58.861Z,1.00
2023-03-25T23:32:33.364Z,2.08
2023-03-25T23:35:06.639Z,2.15
2023-03-25T23:37:40.776Z,0.52
2023-03-25T23:40:13.860Z,0.50
2023-03-25T23:42:46.235Z,0.20
2023-03-25T23:45:18.492Z,0.95
2023-03-25T23:47:50.907Z,0.65
2023-03-25T23:50:25.152Z,0.30
2023-03-25T23:53:00.972Z,0.47
2023-03-25T23:55:35.203Z,0.47
2023-03-25T23:58:07.486Z,0.30
